createdAt,value
2022-09-14T00:01:54.752Z,16.20
2022-09-14T00:04:23.281Z,16.10
2022-09-14T00:06:52.535Z,16.10
2022-09-14T00:09:24.477Z,16.00
2022-09-14T00:11:53.835Z,16.00
2022-09-14T00:14:22.214Z,16.00
2022-09-14T00:16:51.184Z,16.00
2022-09-14T00:19:23.417Z,16.10
2022-09-14T00:21:53.739Z,16.10
2022-09-14T00:24:24.726Z,16.10
2022-09-14T00:26:55.461Z,16.10
2022-09-14T00:29:25.628Z,16.10
2022-09-14T00:32:00.656Z,16.20
2022-09-14T00:34:29.912Z,16.20
2022-09-14T00:36:58.138Z,16.20
2022-09-14T00:39:28.200Z,16.20
2022-09-14T00:41:56.973Z,16.20
2022-09-14T00:45:00.417Z,16.10
2022-09-14T00:47:30.617Z,16.10
2022-09-14T00:50:01.362Z,16.00
2022-09-14T00:52:32.967Z,16.00
2022-09-14T00:55:06.317Z,15.90
2022-09-14T00:57:39.150Z,15.80
2022-09-14T01:00:11.315Z,15.80
2022-09-14T01:02:40.829Z,15.90
2022-09-14T01:05:10.565Z,15.80
2022-09-14T01:07:58.969Z,15.80
2022-09-14T01:10:41.146Z,15.80
2022-09-14T01:13:23.770Z,15.80
2022-09-14T01:16:00.118Z,15.90
2022-09-14T01:18:30.799Z,15.90
2022-09-14T01:21:03.282Z,15.90
2022-09-14T01:23:44.856Z,15.90
2022-09-14T01:26:41.289Z,15.90
2022-09-14T01:29:16.235Z,15.90
2022-09-14T01:31:52.280Z,15.90
2022-09-14T01:34:31.044Z,15.90
2022-09-14T01:37:06.519Z,15.90
2022-09-14T01:39:37.091Z,15.90
2022-09-14T01:42:06.343Z,15.90
2022-09-14T01:44:38.864Z,15.80
2022-09-14T01:47:14.180Z,15.70
2022-09-14T01:49:47.118Z,15.70
2022-09-14T01:52:21.723Z,15.70
2022-09-14T01:54:53.147Z,15.60
2022-09-14T01:57:26.113Z,15.60
2022-09-14T02:00:00.500Z,15.60
2022-09-14T02:02:33.121Z,15.60
2022-09-14T02:05:08.907Z,15.60
2022-09-14T02:07:38.896Z,15.60
2022-09-14T02:10:11.238Z,15.60
2022-09-14T02:12:41.254Z,15.60
2022-09-14T02:15:13.718Z,15.60
2022-09-14T02:17:43.005Z,15.70
2022-09-14T02:20:18.293Z,15.70
2022-09-14T02:22:46.787Z,15.60
2022-09-14T02:25:15.027Z,15.70
2022-09-14T02:27:43.691Z,15.60
2022-09-14T02:30:14.140Z,15.60
2022-09-14T02:32:52.181Z,15.60
2022-09-14T02:35:27.750Z,15.60
2022-09-14T02:38:06.560Z,15.60
2022-09-14T02:40:38.452Z,15.60
2022-09-14T02:43:22.670Z,15.70
2022-09-14T02:45:59.770Z,15.70
2022-09-14T02:48:35.879Z,15.70
2022-09-14T02:51:12.575Z,15.70
2022-09-14T02:53:45.541Z,15.60
2022-09-14T02:56:15.001Z,15.70
2022-09-14T02:58:46.140Z,15.60
2022-09-14T03:01:24.859Z,15.60
2022-09-14T03:03:53.546Z,15.60
2022-09-14T03:06:22.061Z,15.50
2022-09-14T03:08:50.674Z,15.50
2022-09-14T03:11:19.380Z,15.50
2022-09-14T03:13:47.862Z,15.50
2022-09-14T03:16:19.542Z,15.50
2022-09-14T03:18:47.819Z,15.50
2022-09-14T03:21:17.731Z,15.50
2022-09-14T03:23:49.766Z,15.50
2022-09-14T03:26:20.172Z,15.50
2022-09-14T03:28:52.295Z,15.50
2022-09-14T03:31:22.385Z,15.50
2022-09-14T03:33:54.239Z,15.40
2022-09-14T03:36:23.561Z,15.40
2022-09-14T03:38:53.488Z,15.40
2022-09-14T03:41:23.651Z,15.40
2022-09-14T03:43:52.259Z,15.40
2022-09-14T03:46:24.703Z,15.30
2022-09-14T03:48:53.560Z,15.30
2022-09-14T03:51:21.681Z,15.30
2022-09-14T03:53:51.372Z,15.40
2022-09-14T03:56:24.633Z,15.30
2022-09-14T03:58:53.649Z,15.30
2022-09-14T04:01:24.798Z,15.20
2022-09-14T04:03:53.391Z,15.20
2022-09-14T04:06:21.851Z,15.20
2022-09-14T04:08:57.023Z,15.30
2022-09-14T04:11:26.183Z,15.20
2022-09-14T04:13:54.948Z,15.20
2022-09-14T04:16:25.190Z,15.30
2022-09-14T04:18:54.800Z,15.30
2022-09-14T04:21:25.888Z,15.20
2022-09-14T04:24:15.112Z,15.20
2022-09-14T04:26:45.123Z,15.10
2022-09-14T04:29:14.935Z,15.20
2022-09-14T04:31:44.511Z,15.20
2022-09-14T04:34:24.576Z,15.20
2022-09-14T04:36:53.112Z,15.20
2022-09-14T04:39:24.397Z,15.20
2022-09-14T04:41:53.215Z,15.20
2022-09-14T04:44:21.357Z,15.20
2022-09-14T04:46:51.420Z,15.20
2022-09-14T04:49:21.845Z,15.10
2022-09-14T04:51:55.023Z,15.10
2022-09-14T04:54:23.397Z,15.10
2022-09-14T04:56:51.819Z,15.10
2022-09-14T04:59:20.208Z,15.10
2022-09-14T05:01:54.285Z,15.00
2022-09-14T05:04:22.767Z,15.00
2022-09-14T05:06:51.268Z,15.00
2022-09-14T05:09:20.201Z,15.00
2022-09-14T05:11:51.893Z,15.00
2022-09-14T05:14:20.180Z,15.00
2022-09-14T05:16:48.523Z,15.00
2022-09-14T05:19:19.442Z,15.00
2022-09-14T05:21:48.166Z,15.00
2022-09-14T05:24:19.806Z,14.90
2022-09-14T05:26:58.205Z,14.90
2022-09-14T05:29:29.839Z,14.90
2022-09-14T05:32:03.165Z,14.90
2022-09-14T05:34:35.489Z,14.90
2022-09-14T05:37:06.273Z,14.90
2022-09-14T05:39:36.400Z,14.90
2022-09-14T05:42:10.666Z,14.90
2022-09-14T05:44:42.401Z,14.90
2022-09-14T05:47:13.540Z,14.80
2022-09-14T05:49:50.165Z,14.90
2022-09-14T05:52:20.189Z,14.90
2022-09-14T05:54:49.549Z,14.90
2022-09-14T05:57:22.584Z,14.90
2022-09-14T05:59:52.196Z,14.90
2022-09-14T06:02:20.482Z,15.00
2022-09-14T06:04:50.403Z,14.90
2022-09-14T06:07:20.164Z,15.00
2022-09-14T06:09:49.690Z,15.00
2022-09-14T06:12:22.057Z,15.00
2022-09-14T06:14:55.355Z,15.00
2022-09-14T06:17:24.969Z,15.00
2022-09-14T06:20:02.219Z,15.00
2022-09-14T06:22:34.762Z,15.00
2022-09-14T06:25:11.941Z,15.00
2022-09-14T06:27:44.088Z,15.00
2022-09-14T06:30:19.849Z,15.00
2022-09-14T06:32:55.358Z,15.00
2022-09-14T06:35:28.921Z,15.00
2022-09-14T06:37:58.198Z,15.00
2022-09-14T06:40:30.943Z,15.10
2022-09-14T06:43:02.394Z,15.10
2022-09-14T06:45:32.827Z,15.10
2022-09-14T06:48:03.566Z,15.00
2022-09-14T06:50:35.710Z,15.00
2022-09-14T06:53:06.128Z,15.00
2022-09-14T06:55:34.650Z,15.00
2022-09-14T06:58:06.396Z,15.00
2022-09-14T07:00:37.090Z,15.00
2022-09-14T07:03:15.682Z,15.00
2022-09-14T07:05:47.565Z,15.00
2022-09-14T07:08:16.421Z,14.90
2022-09-14T07:10:58.690Z,14.90
2022-09-14T07:13:28.061Z,14.90
2022-09-14T07:16:00.683Z,14.90
2022-09-14T07:18:33.414Z,14.90
2022-09-14T07:21:10.561Z,14.90
2022-09-14T07:23:41.794Z,14.90
2022-09-14T07:26:14.799Z,15.00
2022-09-14T07:28:46.632Z,15.00
2022-09-14T07:31:21.790Z,15.00
2022-09-14T07:33:56.659Z,15.00
2022-09-14T07:36:34.602Z,15.00
2022-09-14T07:39:09.978Z,15.00
2022-09-14T07:41:41.896Z,15.00
2022-09-14T07:44:13.207Z,15.10
2022-09-14T07:46:46.420Z,15.10
2022-09-14T07:49:18.884Z,15.10
2022-09-14T07:51:50.683Z,15.10
2022-09-14T07:54:22.174Z,15.20
2022-09-14T07:56:52.710Z,15.20
2022-09-14T07:59:35.629Z,15.20
2022-09-14T08:02:09.396Z,15.20
2022-09-14T08:04:40.355Z,15.20
2022-09-14T08:07:11.753Z,15.20
2022-09-14T08:09:47.705Z,15.30
2022-09-14T08:12:18.006Z,15.30
2022-09-14T08:14:52.058Z,15.30
2022-09-14T08:17:22.364Z,15.40
2022-09-14T08:19:51.569Z,15.40
2022-09-14T08:22:21.214Z,15.40
2022-09-14T08:24:49.285Z,15.50
2022-09-14T08:27:17.511Z,15.50
2022-09-14T08:29:46.012Z,15.50
2022-09-14T08:32:14.327Z,15.40
2022-09-14T08:34:42.384Z,15.50
2022-09-14T08:37:12.197Z,15.50
2022-09-14T08:39:42.377Z,15.50
2022-09-14T08:42:15.355Z,15.50
2022-09-14T08:44:46.521Z,15.50
2022-09-14T08:47:20.514Z,15.60
2022-09-14T08:49:52.874Z,15.60
2022-09-14T08:52:29.183Z,15.60
2022-09-14T08:55:29.366Z,15.60
2022-09-14T08:58:05.784Z,15.70
2022-09-14T09:00:55.245Z,15.60
2022-09-14T09:03:51.161Z,15.60
2022-09-14T09:06:26.458Z,15.60
2022-09-14T09:09:04.438Z,15.60
2022-09-14T09:11:54.054Z,15.60
2022-09-14T09:14:26.751Z,15.60
2022-09-14T09:16:58.244Z,15.60
2022-09-14T09:19:31.424Z,15.60
2022-09-14T09:22:01.504Z,15.60
2022-09-14T09:24:37.313Z,15.60
2022-09-14T09:27:11.551Z,15.70
2022-09-14T09:29:40.015Z,15.60
2022-09-14T09:32:12.534Z,15.60
2022-09-14T09:34:40.742Z,15.60
2022-09-14T09:37:15.524Z,15.70
2022-09-14T09:39:44.964Z,15.70
2022-09-14T09:42:21.528Z,15.60
2022-09-14T09:45:02.176Z,15.70
2022-09-14T09:47:34.869Z,15.70
2022-09-14T09:50:05.765Z,15.80
2022-09-14T09:52:37.419Z,15.80
2022-09-14T09:55:07.675Z,15.80
2022-09-14T09:57:38.459Z,15.90
2022-09-14T10:00:18.907Z,15.90
2022-09-14T10:02:47.447Z,16.00
2022-09-14T10:05:24.666Z,16.00
2022-09-14T10:07:57.081Z,16.20
2022-09-14T10:10:43.110Z,16.10
2022-09-14T10:13:23.491Z,16.20
2022-09-14T10:15:51.859Z,16.30
2022-09-14T10:18:21.142Z,16.30
2022-09-14T10:21:09.586Z,16.30
2022-09-14T10:23:39.279Z,16.20
2022-09-14T10:26:25.824Z,16.20
2022-09-14T10:28:55.440Z,16.20
2022-09-14T10:31:34.468Z,16.10
2022-09-14T10:34:02.629Z,16.10
2022-09-14T10:36:32.813Z,16.10
2022-09-14T10:39:25.999Z,16.10
2022-09-14T10:42:03.309Z,16.10
2022-09-14T10:44:57.607Z,16.10
2022-09-14T10:47:40.407Z,16.20
2022-09-14T10:50:26.454Z,16.20
2022-09-14T10:53:04.711Z,16.20
2022-09-14T10:55:42.278Z,16.30
2022-09-14T10:58:25.443Z,16.30
2022-09-14T11:01:04.266Z,16.30
2022-09-14T11:03:52.275Z,16.20
2022-09-14T11:06:34.290Z,16.10
2022-09-14T11:09:06.590Z,16.10
2022-09-14T11:11:44.378Z,16.10
2022-09-14T11:14:27.467Z,16.10
2022-09-14T11:17:14.280Z,16.20
2022-09-14T11:19:51.404Z,16.10
2022-09-14T11:22:30.560Z,16.10
2022-09-14T11:25:04.588Z,16.10
2022-09-14T11:27:41.074Z,16.20
2022-09-14T11:30:15.366Z,16.20
2022-09-14T11:32:49.650Z,16.10
2022-09-14T11:35:22.357Z,16.10
2022-09-14T11:37:56.375Z,16.00
2022-09-14T11:40:29.249Z,15.90
2022-09-14T11:43:02.516Z,15.80
2022-09-14T11:45:35.845Z,15.70
2022-09-14T11:48:40.736Z,15.70
2022-09-14T11:51:05.493Z,15.60
2022-09-14T11:53:34.803Z,15.60
2022-09-14T11:56:03.558Z,15.70
2022-09-14T11:58:31.882Z,15.70
2022-09-14T12:01:33.608Z,15.70
2022-09-14T12:04:15.862Z,15.80
2022-09-14T12:06:49.653Z,15.80
2022-09-14T12:09:52.611Z,15.80
2022-09-14T12:12:39.669Z,15.70
2022-09-14T12:15:23.771Z,15.70
2022-09-14T12:17:52.679Z,15.70
2022-09-14T12:20:45.389Z,15.70
2022-09-14T12:23:28.749Z,15.80
2022-09-14T12:26:16.762Z,15.80
2022-09-14T12:28:51.025Z,15.60
2022-09-14T12:32:05.369Z,15.60
2022-09-14T12:34:34.891Z,15.70
2022-09-14T12:37:34.440Z,15.70
2022-09-14T12:40:34.842Z,15.70
2022-09-14T12:43:45.827Z,15.60
2022-09-14T12:46:33.814Z,15.60
2022-09-14T12:49:03.998Z,15.70
2022-09-14T12:51:44.490Z,15.70
2022-09-14T12:54:26.287Z,15.70
2022-09-14T12:57:20.611Z,15.70
2022-09-14T12:59:57.787Z,15.70
2022-09-14T13:02:59.736Z,15.80
2022-09-14T13:05:30.803Z,15.90
2022-09-14T13:07:59.641Z,15.90
2022-09-14T13:10:33.827Z,15.90
2022-09-14T13:13:04.332Z,15.90
2022-09-14T13:15:37.128Z,15.90
2022-09-14T13:18:07.591Z,15.90
2022-09-14T13:20:37.752Z,16.00
2022-09-14T13:23:21.874Z,16.10
2022-09-14T13:25:51.871Z,16.10
2022-09-14T13:28:21.782Z,16.10
2022-09-14T13:30:56.836Z,16.10
2022-09-14T13:33:26.157Z,16.00
2022-09-14T13:35:56.659Z,16.00
2022-09-14T13:38:27.150Z,16.10
2022-09-14T13:41:04.707Z,16.00
2022-09-14T13:43:33.681Z,16.20
2022-09-14T13:46:03.246Z,16.20
2022-09-14T13:48:31.433Z,16.10
2022-09-14T13:51:00.051Z,16.10
2022-09-14T13:53:40.456Z,16.10
2022-09-14T13:56:22.161Z,16.00
2022-09-14T13:58:53.175Z,15.90
2022-09-14T14:01:27.957Z,15.90
2022-09-14T14:03:58.375Z,15.90
2022-09-14T14:06:30.508Z,15.90
2022-09-14T14:09:03.705Z,15.90
2022-09-14T14:11:36.653Z,15.90
2022-09-14T16:28:28.756Z,16.70
2022-09-14T16:31:07.571Z,16.60
2022-09-14T16:33:43.912Z,16.60
2022-09-14T16:36:16.961Z,16.50
2022-09-14T16:38:51.976Z,16.50
2022-09-14T16:41:20.294Z,16.50
2022-09-14T16:43:57.291Z,16.50
2022-09-14T16:46:31.714Z,16.50
2022-09-14T16:49:04.908Z,16.70
2022-09-14T16:51:38.081Z,16.60
2022-09-14T16:54:19.153Z,16.50
2022-09-14T16:56:49.201Z,16.40
2022-09-14T16:59:22.003Z,16.40
2022-09-14T17:01:55.723Z,16.40
2022-09-14T17:04:37.533Z,16.40
2022-09-14T17:07:28.658Z,16.40
2022-09-14T17:09:57.847Z,16.40
2022-09-14T17:12:26.744Z,16.40
2022-09-14T17:14:59.925Z,16.30
2022-09-14T17:17:28.764Z,16.20
2022-09-14T17:19:56.982Z,16.20
2022-09-14T17:22:32.032Z,16.20
2022-09-14T17:25:05.188Z,16.10
2022-09-14T17:27:35.544Z,16.10
2022-09-14T17:30:06.525Z,16.10
2022-09-14T17:32:35.033Z,16.10
2022-09-14T17:35:07.892Z,16.10
2022-09-14T17:37:36.921Z,16.00
2022-09-14T17:40:08.697Z,16.00
2022-09-14T17:42:48.512Z,15.80
2022-09-14T17:45:22.933Z,15.90
2022-09-14T17:47:51.747Z,15.90
2022-09-14T17:50:21.991Z,15.90
2022-09-14T17:52:51.396Z,15.90
2022-09-14T17:55:25.347Z,15.80
2022-09-14T17:57:54.492Z,15.80
2022-09-14T18:00:24.701Z,15.90
2022-09-14T18:02:53.662Z,15.80
2022-09-14T18:05:22.625Z,15.80
2022-09-14T18:07:51.697Z,15.80
2022-09-14T18:10:20.400Z,15.70
2022-09-14T18:12:49.970Z,15.70
2022-09-14T18:15:19.072Z,15.60
2022-09-14T18:17:50.614Z,15.50
2022-09-14T18:20:22.618Z,15.50
2022-09-14T18:22:51.190Z,15.40
2022-09-14T18:25:19.785Z,15.40
2022-09-14T18:27:48.310Z,15.40
2022-09-14T18:30:16.551Z,15.30
2022-09-14T18:32:46.279Z,15.30
2022-09-14T18:35:18.198Z,15.20
2022-09-14T18:37:50.520Z,15.20
2022-09-14T18:40:25.748Z,15.20
2022-09-14T18:43:07.895Z,15.10
2022-09-14T18:45:42.746Z,15.10
2022-09-14T18:48:32.342Z,15.10
2022-09-14T18:51:05.089Z,15.10
2022-09-14T18:53:35.620Z,15.20
2022-09-14T18:56:15.357Z,15.20
2022-09-14T18:58:53.054Z,15.10
2022-09-14T19:01:32.648Z,15.10
2022-09-14T19:04:16.417Z,15.10
2022-09-14T19:06:52.760Z,15.10
2022-09-14T19:09:23.167Z,15.10
2022-09-14T19:11:58.182Z,15.10
2022-09-14T19:14:31.423Z,15.00
2022-09-14T19:17:12.690Z,15.00
2022-09-14T19:19:44.212Z,15.00
2022-09-14T19:22:16.449Z,14.90
2022-09-14T19:24:48.440Z,15.00
2022-09-14T19:27:23.348Z,15.00
2022-09-14T19:30:04.546Z,15.00
2022-09-14T19:32:38.106Z,15.00
2022-09-14T19:35:08.172Z,14.90
2022-09-14T19:37:52.530Z,14.90
2022-09-14T19:40:25.160Z,14.90
2022-09-14T19:42:56.263Z,14.90
2022-09-14T19:45:31.020Z,14.90
2022-09-14T19:48:05.807Z,14.90
2022-09-14T19:50:35.138Z,14.90
2022-09-14T19:53:05.450Z,14.70
2022-09-14T19:55:33.813Z,14.70
2022-09-14T19:58:06.094Z,14.70
2022-09-14T20:00:36.286Z,14.60
2022-09-14T20:03:10.538Z,14.60
2022-09-14T20:05:44.363Z,14.70
2022-09-14T20:08:22.053Z,14.70
2022-09-14T20:10:53.619Z,14.60
2022-09-14T20:13:45.520Z,14.60
2022-09-14T20:16:21.849Z,14.60
2022-09-14T20:19:06.218Z,14.70
2022-09-14T20:21:44.621Z,14.70
2022-09-14T20:24:27.038Z,14.70
2022-09-14T20:27:05.179Z,14.70
2022-09-14T20:29:36.920Z,14.70
2022-09-14T20:32:10.725Z,14.70
2022-09-14T20:34:44.750Z,14.70
2022-09-14T20:37:16.547Z,14.70
2022-09-14T20:39:50.686Z,14.70
2022-09-14T20:42:20.306Z,14.70
2022-09-14T20:44:50.362Z,14.70
2022-09-14T20:47:22.204Z,14.70
2022-09-14T20:49:54.698Z,14.70
2022-09-14T20:52:26.457Z,14.70
2022-09-14T20:54:59.281Z,14.70
2022-09-14T20:57:27.963Z,14.70
2022-09-14T20:59:59.911Z,14.70
2022-09-14T21:02:31.566Z,14.70
2022-09-14T21:05:00.598Z,14.70
2022-09-14T21:07:33.451Z,14.80
2022-09-14T21:10:07.656Z,14.80
2022-09-14T21:12:37.087Z,14.80
2022-09-14T21:15:08.490Z,14.80
2022-09-14T21:17:40.143Z,14.90
2022-09-14T21:20:09.694Z,14.90
2022-09-14T21:22:40.943Z,14.90
2022-09-14T21:25:16.120Z,14.90
2022-09-14T21:27:49.436Z,14.90
2022-09-14T21:30:20.594Z,14.90
2022-09-14T21:32:51.139Z,14.90
2022-09-14T21:35:20.640Z,14.80
2022-09-14T21:37:50.548Z,14.80
2022-09-14T21:40:24.791Z,14.80
2022-09-14T21:42:58.689Z,14.80
2022-09-14T21:45:27.829Z,14.80
2022-09-14T21:47:56.534Z,14.70
2022-09-14T21:50:25.607Z,14.70
2022-09-14T21:52:57.874Z,14.70
2022-09-14T21:55:30.751Z,14.70
2022-09-14T21:58:01.584Z,14.70
2022-09-14T22:00:31.085Z,14.70
2022-09-14T22:02:59.625Z,14.70
2022-09-14T22:05:28.905Z,14.70
2022-09-14T22:07:58.025Z,14.70
2022-09-14T22:10:29.448Z,14.70
2022-09-14T22:12:59.682Z,14.60
2022-09-14T22:15:32.956Z,14.60
2022-09-14T22:18:03.878Z,14.60
2022-09-14T22:20:37.630Z,14.60
2022-09-14T22:23:10.713Z,14.60
2022-09-14T22:25:45.812Z,14.60
2022-09-14T22:28:14.808Z,14.60
2022-09-14T22:30:48.265Z,14.60
2022-09-14T22:33:20.604Z,14.60
2022-09-14T22:35:54.856Z,14.60
2022-09-14T22:38:25.887Z,14.70
2022-09-14T22:41:01.500Z,14.70
2022-09-14T22:43:35.766Z,14.70
2022-09-14T22:46:11.293Z,14.70
2022-09-14T22:48:41.367Z,14.70
2022-09-14T22:51:14.259Z,14.70
2022-09-14T22:53:43.406Z,14.70
2022-09-14T22:56:19.689Z,14.80
2022-09-14T22:58:52.096Z,14.70
2022-09-14T23:01:25.309Z,14.70
2022-09-14T23:03:58.190Z,14.70
2022-09-14T23:06:32.472Z,14.70
2022-09-14T23:09:02.105Z,14.70
2022-09-14T23:11:33.105Z,14.70
2022-09-14T23:14:01.742Z,14.70
2022-09-14T23:16:31.484Z,14.60
2022-09-14T23:19:01.205Z,14.50
2022-09-14T23:21:31.174Z,14.40
2022-09-14T23:24:01.912Z,14.40
2022-09-14T23:26:31.741Z,14.30
2022-09-14T23:29:02.834Z,14.20
2022-09-14T23:31:32.973Z,14.30
2022-09-14T23:34:02.917Z,14.20
2022-09-14T23:36:31.568Z,14.20
2022-09-14T23:39:00.288Z,14.20
2022-09-14T23:41:29.046Z,14.10
2022-09-14T23:43:58.751Z,14.20
2022-09-14T23:46:29.746Z,14.20
2022-09-14T23:48:58.282Z,14.10
2022-09-14T23:51:26.978Z,14.10
2022-09-14T23:53:55.192Z,14.00
2022-09-14T23:56:23.830Z,14.00
2022-09-14T23:58:52.418Z,14.10
